Burhaniye, Turkey
Current Conditions -  °F | °C
As of 2:50 AM on Saturday 25 Oct 2014 (Local Time) from LTFD Reporting Station
Thunderstorm Thunderstorm  
Wind Chill: 61°   Ceiling: 9000
Heat Index: 61°   Visibility: 6mi
Dew Point: 55°   Wind: 12mph
Humidity: 82%   Direction: 70°ENE
Pressure: 29.71"   Gusts: NA
Location:  39.51°N, 26.98°E
Report Text: LTFD 242350Z 07010KT 9999 -TSRA FEW025CB SCT030 BKN090 16/13 Q1006
Loading
Personal Weather Stations






























Interactive Weather Map
Tropical Storm Tracking
New forecast layout! Learn more

10-Day Weather Forecast

Advertisements
Track Severe Weather on mobile